WetterOnline ( https://www.wetteronline.ch )

Wetter aktuell Cottbus

Aktuelles Wetter: Cottbus (70m)

6-stündlich | Neueste Meldungen
Ortszeit Temperatur Wetter
Mi, 17.07. 8:00 19.9° C wolkig
Mi, 17.07. 2:00 19.0° C wolkenlos
Di, 16.07. 20:00 27.0° C leicht bewölkt
Di, 16.07. 14:00 25.9° C bewölkt
Di, 16.07. 8:00 22.2° C wolkig
Di, 16.07. 2:00 19.9° C leicht bewölkt
Mo, 15.07. 20:00 28.5° C leicht bewölkt
Mo, 15.07. 14:00 29.9° C fast wolkenlos
Ortszeit Temperatur Wetter
Mi, 17.07. 12:30 22.2° C bewölkt
Mi, 17.07. 12:20 22.2° C bewölkt
Mi, 17.07. 12:10 22.6° C bedeckt
Mi, 17.07. 12:00 22.7° C bewölkt
Mi, 17.07. 11:50 22.7° C bewölkt
Mi, 17.07. 11:40 23.6° C bedeckt
Mi, 17.07. 11:30 22.5° C wolkig
Mi, 17.07. 11:00 22.5° C wolkig
Mi, 17.07. 10:30 21.7° C bedeckt
Mi, 17.07. 10:00 21.7° C wolkig
Mi, 17.07. 9:30 21.6° C bewölkt
Ortszeit Relative Feuchte Sichtweite
Mi, 17.07. 8:00 63% 65 km
Mi, 17.07. 2:00 65% 60 km
Di, 16.07. 20:00 46% 60 km
Di, 16.07. 14:00 62% >70 km
Di, 16.07. 8:00 68% 50 km
Di, 16.07. 2:00 82% 55 km
Mo, 15.07. 20:00 41% >70 km
Mo, 15.07. 14:00 35% 65 km
Ortszeit Relative Feuchte Sichtweite
Mi, 17.07. 12:30 58% >70 km
Mi, 17.07. 12:20 58% -
Mi, 17.07. 12:10 56% -
Mi, 17.07. 12:00 53% >70 km
Mi, 17.07. 11:50 53% -
Mi, 17.07. 11:40 52% -
Mi, 17.07. 11:30 55% >70 km
Mi, 17.07. 11:00 57% >70 km
Mi, 17.07. 10:30 58% >70 km
Mi, 17.07. 10:00 57% 55 km
Mi, 17.07. 9:30 57% 55 km
Ortszeit Niederschlagsmenge Niederschlagsart
Mi, 17.07. 8:00 0.0 l/m2 in 12 Std. -
Mi, 17.07. 2:00 0.0 l/m2 in 6 Std. -
Di, 16.07. 20:00 0.8 l/m2 in 12 Std. -
Di, 16.07. 14:00 0.8 l/m2 in 6 Std. Regen
Di, 16.07. 8:00 0.1 l/m2 in 12 Std. Regen
Di, 16.07. 2:00 0.0 l/m2 in 6 Std. -
Mo, 15.07. 20:00 0.0 l/m2 in 12 Std. -
Mo, 15.07. 14:00 0.0 l/m2 in 6 Std. -
Ortszeit Niederschlagsmenge Niederschlagsart
Mi, 17.07. 12:30 0.0 l/m2 in 30 Min -
Mi, 17.07. 12:20 keine Meldung -
Mi, 17.07. 12:10 keine Meldung -
Mi, 17.07. 12:00 0.0 l/m2 in 1 Std. -
Mi, 17.07. 11:50 keine Meldung -
Mi, 17.07. 11:40 keine Meldung -
Mi, 17.07. 11:30 0.0 l/m2 in 30 Min -
Mi, 17.07. 11:00 0.0 l/m2 in 1 Std. -
Mi, 17.07. 10:30 0.0 l/m2 in 30 Min -
Mi, 17.07. 10:00 0.0 l/m2 in 1 Std. -
Mi, 17.07. 9:30 0.0 l/m2 in 30 Min -
Ortszeit Stärke Spitze Richtung
km/h Bft. km/h Grad Sektor
Mi, 17.07. 8:00 14 3 29 250° W
Mi, 17.07. 2:00 7 2 25 240° SW
Di, 16.07. 20:00 11 2 32 250° W
Di, 16.07. 14:00 13 3 28 220° SW
Di, 16.07. 8:00 7 2 22 250° W
Di, 16.07. 2:00 6 1 11 90° O
Mo, 15.07. 20:00 7 2 25 20° N
Mo, 15.07. 14:00 9 2 30 210° SW
Ortszeit Stärke Spitze Richtung
km/h Bft. km/h Grad Sektor
Mi, 17.07. 12:30 11 2 26 300° NW
Mi, 17.07. 12:20 11 2 - 300° NW
Mi, 17.07. 12:10 11 2 - 270° W
Mi, 17.07. 12:00 13 3 30 270° W
Mi, 17.07. 11:50 13 3 - 270° W
Mi, 17.07. 11:40 11 2 - 270° W
Mi, 17.07. 11:30 15 3 30 260° W
Mi, 17.07. 11:00 9 2 24 260° W
Mi, 17.07. 10:30 11 2 25 250° W
Mi, 17.07. 10:00 15 3 33 260° W
Mi, 17.07. 9:30 14 3 32 270° W
Ortszeit Untergrenze Bedeckung Gattung
total tief tief mittel hoch
Mi, 17.07. 8:00 6600 m 7/8 5/8 - - -
Mi, 17.07. 2:00 - 0/8 0/8 - - -
Di, 16.07. 20:00 9000 m 7/8 0/8 - - -
Di, 16.07. 14:00 1020 m 8/8 6/8 - - -
Di, 16.07. 8:00 2100 m 8/8 2/8 - - -
Di, 16.07. 2:00 8700 m 6/8 0/8 - - -
Mo, 15.07. 20:00 9000 m 6/8 0/8 - - -
Mo, 15.07. 14:00 2100 m 1/8 1/8 - - -
Ortszeit Bedeckungsgrad in Achtel und Wolkenuntergrenze
Mi, 17.07. 12:30 5(1500m) 7(1800m) 8(6600m)
Mi, 17.07. 12:20 5(1500m) 7(1800m) 8(6600m)
Mi, 17.07. 12:10 8
Mi, 17.07. 12:00 6(1500m) 6(1800m) 8(6300m)
Mi, 17.07. 11:50 6(1500m) 6(1800m) 8(6300m)
Mi, 17.07. 11:40 8
Mi, 17.07. 11:30 3(1230m) 4(1470m) 7(6300m)
Mi, 17.07. 11:00 2(1260m) 7(6900m) 7(7800m)
Mi, 17.07. 10:30 8(6300m)
Mi, 17.07. 10:00 6(6300m) 8(7500m)
Mi, 17.07. 9:30 7(6300m) 7(7800m) 7(9000m)
Ortszeit Luftdruck NN (hPa) Tendenz (hPa in 3 Std.)
Mi, 17.07. 8:00 1018 + 1,4
Mi, 17.07. 2:00 1016 + 2,0
Di, 16.07. 20:00 1012 - 0,1
Di, 16.07. 14:00 1012 + 0,5
Di, 16.07. 8:00 1011 + 1,8
Di, 16.07. 2:00 1010 - 0,8
Mo, 15.07. 20:00 1011 - 1,0
Mo, 15.07. 14:00 1013 - 0,7
Ortszeit Luftdruck NN (hPa) Tendenz (hPa in 3 Std.)
Mi, 17.07. 12:30 1019 + 0,8
Mi, 17.07. 12:20 1019 keine Meldung
Mi, 17.07. 12:10 1019 keine Meldung
Mi, 17.07. 12:00 1019 + 0,8
Mi, 17.07. 11:50 1019 keine Meldung
Mi, 17.07. 11:40 1019 keine Meldung
Mi, 17.07. 11:30 1019 + 0,7
Mi, 17.07. 11:00 1019 + 0,6
Mi, 17.07. 10:30 1019 + 0,7
Mi, 17.07. 10:00 1019 + 0,8
Mi, 17.07. 9:30 1019 + 1,1
Ortszeit Schneehöhe (cm)
Mi, 17.07. 8:00 0
Mi, 17.07. 2:00 0
Di, 16.07. 20:00 0
Di, 16.07. 14:00 0
Di, 16.07. 8:00 0
Di, 16.07. 2:00 0
Mo, 15.07. 20:00 0
Mo, 15.07. 14:00 0
Ortszeit Schneehöhe (cm)
Mi, 17.07. 12:30 0
Mi, 17.07. 12:20 0
Mi, 17.07. 12:10 -
Mi, 17.07. 12:00 0
Mi, 17.07. 11:50 0
Mi, 17.07. 11:40 -
Mi, 17.07. 11:30 0
Mi, 17.07. 11:00 0
Mi, 17.07. 10:30 0
Mi, 17.07. 10:00 0
Mi, 17.07. 9:30 0
Link zu dieser Seite / Seite empfehlen

Das Wetter in ...